createdAt,value
2017-11-14T00:02:00.716Z,1.60
2017-11-14T00:04:28.997Z,1.60
2017-11-14T00:06:56.491Z,1.60
2017-11-14T00:09:23.985Z,1.60
2017-11-14T00:11:52.249Z,1.60
2017-11-14T00:14:19.854Z,1.50
2017-11-14T00:16:47.352Z,1.50
2017-11-14T00:19:14.849Z,1.40
2017-11-14T00:21:43.131Z,1.40
2017-11-14T00:24:11.410Z,1.40
2017-11-14T00:26:38.927Z,1.30
2017-11-14T00:29:06.438Z,1.40
2017-11-14T00:31:33.959Z,1.40
2017-11-14T00:34:01.553Z,1.30
2017-11-14T00:36:29.553Z,1.30
2017-11-14T00:38:57.896Z,1.30
2017-11-14T00:41:26.170Z,1.30
2017-11-14T00:43:54.445Z,1.30
2017-11-14T00:46:22.701Z,1.30
2017-11-14T00:48:50.954Z,1.30
2017-11-14T00:51:18.466Z,1.30
2017-11-14T00:53:45.968Z,1.30
2017-11-14T00:56:13.481Z,1.30
2017-11-14T00:58:41.038Z,1.20
2017-11-14T01:01:08.561Z,1.20
2017-11-14T01:03:36.157Z,1.20
2017-11-14T01:06:03.692Z,1.20
2017-11-14T01:08:32.010Z,1.10
2017-11-14T01:10:59.553Z,1.10
2017-11-14T01:13:27.060Z,1.10
2017-11-14T01:15:54.565Z,1.00
2017-11-14T01:18:22.079Z,0.90
2017-11-14T01:20:49.570Z,1.00
2017-11-14T01:23:17.866Z,1.00
2017-11-14T01:25:45.421Z,1.00
2017-11-14T01:28:12.916Z,0.90
2017-11-14T01:30:40.417Z,0.90
2017-11-14T01:33:07.913Z,0.80
2017-11-14T01:35:35.455Z,0.80
2017-11-14T01:38:03.744Z,0.80
2017-11-14T01:40:31.245Z,0.70
2017-11-14T01:42:58.761Z,0.80
2017-11-14T01:45:26.267Z,0.80
2017-11-14T01:47:53.860Z,0.80
2017-11-14T01:50:22.138Z,0.90
2017-11-14T01:52:49.700Z,0.80
2017-11-14T01:55:17.969Z,0.90
2017-11-14T01:57:46.359Z,0.90
2017-11-14T02:03:29.206Z,1.00
2017-11-14T02:05:56.694Z,1.00
2017-11-14T02:08:24.215Z,1.00
2017-11-14T02:10:51.731Z,1.10
2017-11-14T02:13:20.761Z,1.10
2017-11-14T02:15:48.273Z,1.10
2017-11-14T02:18:15.779Z,1.20
2017-11-14T02:20:43.286Z,1.20
2017-11-14T02:23:10.780Z,1.20
2017-11-14T02:25:39.066Z,1.30
2017-11-14T02:28:07.341Z,1.30
2017-11-14T02:30:35.616Z,1.40
2017-11-14T02:33:03.874Z,1.40
2017-11-14T02:35:31.460Z,1.40
2017-11-14T02:37:58.970Z,1.40
2017-11-14T02:40:26.505Z,1.40
2017-11-14T02:42:54.017Z,1.50
2017-11-14T02:45:22.318Z,1.50
2017-11-14T02:47:49.873Z,1.50
2017-11-14T02:50:17.431Z,1.50
2017-11-14T02:52:44.920Z,1.60
2017-11-14T02:55:12.474Z,1.60
2017-11-14T02:57:40.002Z,1.60
2017-11-14T03:00:07.591Z,1.60
2017-11-14T03:02:35.123Z,1.60
2017-11-14T03:05:03.385Z,1.60
2017-11-14T03:07:31.681Z,1.60
2017-11-14T03:09:59.252Z,1.60
2017-11-14T03:12:26.799Z,1.70
2017-11-14T03:14:54.301Z,1.70
2017-11-14T03:17:21.814Z,1.80
2017-11-14T03:19:49.314Z,1.70
2017-11-14T03:22:16.858Z,1.80
2017-11-14T03:24:44.403Z,1.80
2017-11-14T03:27:11.950Z,1.80
2017-11-14T03:29:39.522Z,1.80
2017-11-14T03:32:07.068Z,1.90
2017-11-14T03:34:34.624Z,1.90
2017-11-14T03:37:02.147Z,1.90
2017-11-14T03:39:29.753Z,1.90
2017-11-14T03:41:57.318Z,1.90
2017-11-14T03:44:24.817Z,1.90
2017-11-14T03:46:52.323Z,1.90
2017-11-14T03:49:19.825Z,1.90
2017-11-14T03:51:47.337Z,1.90
2017-11-14T03:54:14.838Z,1.90
2017-11-14T03:56:42.333Z,2.00
2017-11-14T03:59:09.916Z,2.00
2017-11-14T04:01:37.413Z,2.00
2017-11-14T04:04:04.917Z,2.00
2017-11-14T04:06:33.218Z,2.10
2017-11-14T04:09:00.750Z,2.00
2017-11-14T04:11:29.045Z,2.00
2017-11-14T04:13:56.594Z,2.00
2017-11-14T04:16:24.976Z,2.00
2017-11-14T04:18:52.477Z,2.00
2017-11-14T04:21:19.986Z,2.10
2017-11-14T04:23:47.479Z,2.10
2017-11-14T04:26:15.037Z,2.10
2017-11-14T04:28:42.699Z,2.10
2017-11-14T04:31:10.231Z,2.10
2017-11-14T04:33:38.514Z,2.10
2017-11-14T04:36:06.005Z,2.10
2017-11-14T04:38:33.517Z,2.10
2017-11-14T04:41:01.784Z,2.10
2017-11-14T04:43:30.057Z,2.10
2017-11-14T04:45:58.340Z,2.10
2017-11-14T04:48:26.613Z,2.10
2017-11-14T04:50:54.904Z,2.10
2017-11-14T04:53:22.418Z,2.10
2017-11-14T04:55:49.931Z,2.10
2017-11-14T04:58:17.433Z,2.10
2017-11-14T05:00:44.947Z,2.20
2017-11-14T05:03:12.440Z,2.20
2017-11-14T05:05:40.057Z,2.20
2017-11-14T05:08:08.537Z,2.10
2017-11-14T05:10:36.821Z,2.00
2017-11-14T05:13:04.333Z,2.00
2017-11-14T05:15:31.833Z,2.00
2017-11-14T05:17:59.397Z,1.90
2017-11-14T05:20:26.965Z,1.90
2017-11-14T05:22:54.643Z,2.00
2017-11-14T05:25:22.145Z,2.00
2017-11-14T05:27:49.636Z,1.90
2017-11-14T05:30:17.134Z,1.90
2017-11-14T05:32:44.669Z,1.80
2017-11-14T05:35:12.199Z,1.80
2017-11-14T05:37:40.476Z,1.80
2017-11-14T05:40:08.751Z,1.80
2017-11-14T05:42:37.014Z,1.80
2017-11-14T05:45:04.516Z,1.80
2017-11-14T05:47:32.009Z,1.80
2017-11-14T05:49:59.625Z,1.80
2017-11-14T05:52:27.128Z,1.70
2017-11-14T05:54:54.726Z,1.80
2017-11-14T05:57:22.985Z,1.80
2017-11-14T05:59:51.243Z,1.80
2017-11-14T06:02:18.738Z,1.70
2017-11-14T06:04:46.239Z,1.70
2017-11-14T06:07:13.761Z,1.70
2017-11-14T06:09:41.311Z,1.70
2017-11-14T06:12:09.581Z,1.70
2017-11-14T06:14:37.850Z,1.70
2017-11-14T06:17:06.105Z,1.70
2017-11-14T06:19:33.602Z,1.70
2017-11-14T06:22:01.855Z,1.60
2017-11-14T06:24:29.441Z,1.60
2017-11-14T06:26:56.949Z,1.70
2017-11-14T06:29:24.538Z,1.70
2017-11-14T06:31:52.869Z,1.60
2017-11-14T06:34:20.509Z,1.60
2017-11-14T06:36:48.082Z,1.60
2017-11-14T06:39:15.569Z,1.60
2017-11-14T06:41:43.068Z,1.60
2017-11-14T06:44:11.321Z,1.60
2017-11-14T06:46:38.841Z,1.60
2017-11-14T06:49:06.360Z,1.70
2017-11-14T06:51:33.928Z,2.00
2017-11-14T06:54:01.431Z,2.60
2017-11-14T06:56:28.960Z,2.90
2017-11-14T06:58:56.635Z,3.10
2017-11-14T07:01:24.161Z,2.90
2017-11-14T07:03:51.712Z,3.00
2017-11-14T07:06:19.973Z,2.70
2017-11-14T07:08:48.368Z,2.60
2017-11-14T07:11:15.863Z,2.60
2017-11-14T07:13:43.389Z,2.90
2017-11-14T07:16:10.889Z,2.80
2017-11-14T07:18:38.411Z,2.60
2017-11-14T07:21:05.966Z,2.60
2017-11-14T07:23:33.489Z,2.60
2017-11-14T07:26:01.009Z,2.50
2017-11-14T07:28:28.511Z,2.50
2017-11-14T07:30:56.074Z,2.60
2017-11-14T07:33:23.579Z,2.60
2017-11-14T07:35:51.086Z,2.60
2017-11-14T07:38:18.573Z,2.70
2017-11-14T07:40:46.155Z,2.70
2017-11-14T07:43:13.658Z,2.80
2017-11-14T07:45:41.955Z,2.80
2017-11-14T07:48:10.276Z,2.80
2017-11-14T07:50:37.791Z,2.80
2017-11-14T07:53:06.084Z,3.00
2017-11-14T07:55:33.595Z,2.90
2017-11-14T07:58:01.206Z,3.00
2017-11-14T08:00:28.773Z,3.00
2017-11-14T08:02:56.331Z,3.00
2017-11-14T08:05:23.856Z,3.10
2017-11-14T08:07:52.166Z,3.10
2017-11-14T08:10:19.674Z,3.10
2017-11-14T08:12:47.191Z,3.10
2017-11-14T08:15:14.717Z,3.00
2017-11-14T08:17:43.603Z,3.10
2017-11-14T08:20:11.873Z,3.20
2017-11-14T08:22:39.437Z,3.20
2017-11-14T08:25:07.747Z,3.20
2017-11-14T08:27:35.418Z,3.20
2017-11-14T08:30:02.936Z,3.30
2017-11-14T08:32:31.238Z,3.40
2017-11-14T08:34:58.791Z,3.40
2017-11-14T08:37:26.546Z,3.50
2017-11-14T08:39:54.116Z,3.50
2017-11-14T08:42:21.680Z,3.70
2017-11-14T08:44:49.194Z,3.90
2017-11-14T08:47:18.239Z,4.10
2017-11-14T08:49:46.328Z,4.00
2017-11-14T08:52:13.832Z,4.10
2017-11-14T08:54:41.330Z,4.20
2017-11-14T08:57:08.870Z,4.20
2017-11-14T08:59:36.375Z,4.30
2017-11-14T09:02:03.870Z,4.20
2017-11-14T09:04:32.189Z,4.20
2017-11-14T09:06:59.728Z,4.10
2017-11-14T09:09:27.253Z,4.00
2017-11-14T09:11:55.516Z,4.20
2017-11-14T09:14:23.030Z,4.20
2017-11-14T09:16:50.525Z,4.20
2017-11-14T09:19:18.034Z,4.30
2017-11-14T09:21:45.530Z,4.50
2017-11-14T09:24:13.025Z,4.50
2017-11-14T09:26:41.282Z,4.60
2017-11-14T09:29:08.793Z,4.70
2017-11-14T09:31:36.281Z,4.80
2017-11-14T09:34:03.787Z,4.90
2017-11-14T09:36:32.057Z,5.50
2017-11-14T09:38:59.542Z,5.40
2017-11-14T09:41:27.093Z,5.80
2017-11-14T09:43:54.674Z,6.10
2017-11-14T09:46:22.184Z,6.30
2017-11-14T09:48:50.502Z,6.40
2017-11-14T09:51:18.001Z,6.40
2017-11-14T09:53:45.503Z,6.50
2017-11-14T09:56:13.794Z,6.30
2017-11-14T09:58:41.310Z,6.30
2017-11-14T10:01:08.797Z,6.10
2017-11-14T10:03:36.350Z,6.40
2017-11-14T10:06:04.643Z,7.00
2017-11-14T10:08:32.230Z,7.00
2017-11-14T10:10:59.760Z,7.20
2017-11-14T10:13:27.785Z,7.90
2017-11-14T10:15:56.106Z,8.80
2017-11-14T10:18:23.626Z,8.80
2017-11-14T10:20:51.130Z,9.10
2017-11-14T10:23:18.670Z,9.40
2017-11-14T10:25:46.961Z,10.40
2017-11-14T10:28:14.513Z,10.40
2017-11-14T10:30:42.013Z,10.80
2017-11-14T10:33:09.507Z,11.30
2017-11-14T10:35:37.038Z,11.80
2017-11-14T10:38:04.543Z,12.10
2017-11-14T10:40:32.823Z,11.80
2017-11-14T10:43:00.343Z,11.80
2017-11-14T10:45:27.835Z,11.70
2017-11-14T10:47:55.405Z,11.80
2017-11-14T10:50:22.958Z,11.80
2017-11-14T10:52:50.518Z,11.50
2017-11-14T10:55:18.782Z,11.00
2017-11-14T10:57:47.038Z,11.40
2017-11-14T11:00:14.539Z,11.40
2017-11-14T11:02:42.092Z,11.40
2017-11-14T11:05:09.599Z,11.30
2017-11-14T11:07:37.119Z,11.10
2017-11-14T11:10:04.628Z,11.60
2017-11-14T11:12:32.977Z,12.20
2017-11-14T11:15:00.495Z,12.20
2017-11-14T11:17:28.102Z,12.50
2017-11-14T11:19:55.613Z,12.50
2017-11-14T11:22:23.866Z,13.00
2017-11-14T11:24:51.410Z,13.00
2017-11-14T11:27:18.942Z,13.10
2017-11-14T11:29:46.473Z,13.20
2017-11-14T11:32:13.961Z,13.20
2017-11-14T11:34:41.497Z,13.30
2017-11-14T11:37:09.056Z,13.20
2017-11-14T11:39:36.570Z,13.10
2017-11-14T11:42:04.068Z,12.70
2017-11-14T11:44:31.577Z,12.70
2017-11-14T11:46:59.099Z,12.50
2017-11-14T11:49:26.594Z,12.50
2017-11-14T11:51:54.100Z,12.30
2017-11-14T11:54:21.616Z,12.20
2017-11-14T11:56:49.166Z,12.40
2017-11-14T11:59:16.658Z,12.70
2017-11-14T12:01:44.934Z,13.30
2017-11-14T12:04:13.195Z,13.20
2017-11-14T12:06:40.686Z,13.20
2017-11-14T12:09:08.262Z,13.10
2017-11-14T12:11:35.750Z,13.00
2017-11-14T12:14:03.257Z,12.60
2017-11-14T12:16:30.751Z,12.50
2017-11-14T12:18:58.287Z,12.20
2017-11-14T12:21:25.808Z,11.90
2017-11-14T12:23:53.547Z,11.60
2017-11-14T12:26:21.065Z,11.20
2017-11-14T12:28:48.569Z,11.00
2017-11-14T12:31:16.074Z,11.00
2017-11-14T12:33:43.649Z,10.90
2017-11-14T12:36:11.169Z,10.70
2017-11-14T12:38:39.436Z,10.70
2017-11-14T12:41:07.829Z,10.70
2017-11-14T12:43:36.159Z,10.60
2017-11-14T12:46:03.686Z,10.60
2017-11-14T12:48:31.171Z,10.70
2017-11-14T12:50:58.998Z,10.80
2017-11-14T12:53:27.282Z,10.60
2017-11-14T12:55:54.787Z,10.60
2017-11-14T12:58:22.298Z,10.60
2017-11-14T13:00:49.976Z,10.40
2017-11-14T13:03:17.470Z,10.40
2017-11-14T13:05:45.802Z,10.40
2017-11-14T13:08:13.475Z,10.60
2017-11-14T13:10:40.965Z,10.40
2017-11-14T13:13:08.465Z,10.50
2017-11-14T13:15:37.565Z,10.60
2017-11-14T13:18:06.007Z,10.50
2017-11-14T13:20:33.500Z,10.50
2017-11-14T13:23:01.762Z,10.70
2017-11-14T13:25:30.029Z,10.40
2017-11-14T13:27:57.546Z,10.30
2017-11-14T13:30:25.188Z,10.20
2017-11-14T13:32:52.711Z,9.90
2017-11-14T13:35:21.617Z,9.80
2017-11-14T13:37:49.894Z,9.90
2017-11-14T13:40:18.158Z,9.80
2017-11-14T13:42:46.417Z,9.90
2017-11-14T13:45:13.899Z,9.90
2017-11-14T13:47:42.184Z,10.00
2017-11-14T13:50:10.434Z,9.90
2017-11-14T13:52:37.925Z,9.80
2017-11-14T13:55:05.415Z,9.80
2017-11-14T13:57:33.062Z,9.60
2017-11-14T14:00:00.595Z,9.50
2017-11-14T14:02:28.159Z,9.40
2017-11-14T14:04:55.649Z,9.30
2017-11-14T14:07:23.177Z,9.20
2017-11-14T14:09:50.691Z,9.00
2017-11-14T14:12:18.206Z,9.00
2017-11-14T14:14:45.700Z,8.80
2017-11-14T14:17:13.183Z,8.80
2017-11-14T14:19:40.693Z,8.70
2017-11-14T14:22:08.239Z,8.60
2017-11-14T14:24:35.729Z,8.50
2017-11-14T14:27:03.229Z,8.50
2017-11-14T14:29:31.488Z,8.50
2017-11-14T14:31:59.074Z,8.50
2017-11-14T14:34:26.561Z,8.50
2017-11-14T14:36:54.057Z,8.40
2017-11-14T14:39:21.553Z,8.40
2017-11-14T14:41:49.102Z,8.30
2017-11-14T14:44:16.597Z,8.30
2017-11-14T14:46:44.110Z,8.20
2017-11-14T14:49:12.398Z,8.00
2017-11-14T14:51:40.026Z,7.90
2017-11-14T14:54:07.541Z,7.90
2017-11-14T14:56:35.046Z,7.80
2017-11-14T14:59:02.630Z,7.70
2017-11-14T15:01:30.933Z,7.60
2017-11-14T15:03:58.513Z,7.60
2017-11-14T15:06:26.065Z,7.50
2017-11-14T15:08:54.372Z,7.40
2017-11-14T15:11:21.872Z,7.40
2017-11-14T15:13:49.413Z,7.30
2017-11-14T15:16:18.614Z,7.10
2017-11-14T15:18:46.122Z,7.10
2017-11-14T15:21:13.614Z,7.10
2017-11-14T15:23:41.198Z,7.10
2017-11-14T15:26:08.715Z,7.10
2017-11-14T15:28:36.349Z,7.10
2017-11-14T15:31:03.893Z,7.00
2017-11-14T15:33:31.393Z,7.00
2017-11-14T15:35:58.889Z,7.00
2017-11-14T15:38:26.420Z,6.90
2017-11-14T15:40:53.909Z,6.80
2017-11-14T15:43:22.281Z,6.70
2017-11-14T15:45:50.530Z,6.60
2017-11-14T15:48:18.133Z,6.60
2017-11-14T15:50:45.688Z,6.50
2017-11-14T15:53:13.197Z,6.50
2017-11-14T15:55:40.814Z,6.40
2017-11-14T15:58:08.319Z,6.40
2017-11-14T16:00:35.877Z,6.30
2017-11-14T16:03:03.474Z,6.30
2017-11-14T16:05:31.751Z,6.30
2017-11-14T16:08:00.010Z,6.30
2017-11-14T16:10:28.307Z,6.30
2017-11-14T16:12:55.810Z,6.30
2017-11-14T16:15:23.406Z,6.30
2017-11-14T16:17:51.266Z,6.30
2017-11-14T16:20:19.564Z,6.30
2017-11-14T16:22:47.145Z,6.30
2017-11-14T16:25:14.771Z,6.30
2017-11-14T16:27:43.828Z,6.30
2017-11-14T16:30:11.373Z,6.30
2017-11-14T16:32:39.016Z,6.30
2017-11-14T16:35:06.554Z,6.30
2017-11-14T16:37:34.815Z,6.30
2017-11-14T16:40:02.409Z,6.30
2017-11-14T16:42:29.993Z,6.30
2017-11-14T16:44:57.502Z,6.30
2017-11-14T16:47:25.773Z,6.30
2017-11-14T16:49:53.355Z,6.30
2017-11-14T16:52:20.862Z,6.30
2017-11-14T16:54:48.370Z,6.30
2017-11-14T16:57:16.687Z,6.30
2017-11-14T16:59:44.218Z,6.30
2017-11-14T17:02:11.782Z,6.30
2017-11-14T17:04:39.280Z,6.40
2017-11-14T17:07:06.777Z,6.30
2017-11-14T17:09:35.078Z,6.30
2017-11-14T17:12:02.634Z,6.30
2017-11-14T17:14:30.134Z,6.30
2017-11-14T17:16:57.653Z,6.30
2017-11-14T17:19:25.140Z,6.30
2017-11-14T17:21:52.790Z,6.30
2017-11-14T17:24:20.277Z,6.30
2017-11-14T17:26:47.926Z,6.30
2017-11-14T17:29:15.569Z,6.40
2017-11-14T17:31:43.078Z,6.40
2017-11-14T17:34:11.438Z,6.40
2017-11-14T17:36:38.954Z,6.30
2017-11-14T17:39:06.498Z,6.30
2017-11-14T17:41:34.035Z,6.40
2017-11-14T17:44:01.570Z,6.40
2017-11-14T17:46:29.112Z,6.40
2017-11-14T17:48:56.605Z,6.40
2017-11-14T17:51:24.873Z,6.40
2017-11-14T17:53:52.401Z,6.40
2017-11-14T17:56:19.897Z,6.40
2017-11-14T17:58:48.166Z,6.50
2017-11-14T18:01:15.823Z,6.40
2017-11-14T18:03:43.315Z,6.50
2017-11-14T18:06:10.799Z,6.50
2017-11-14T18:08:38.313Z,6.50
2017-11-14T18:11:06.581Z,6.50
2017-11-14T18:13:34.881Z,6.50
2017-11-14T18:16:02.373Z,6.50
2017-11-14T18:18:29.889Z,6.50
2017-11-14T18:20:58.155Z,6.50
2017-11-14T18:23:26.450Z,6.50
2017-11-14T18:25:53.997Z,6.50
2017-11-14T18:28:21.562Z,6.50
2017-11-14T18:30:49.831Z,6.50
2017-11-14T18:33:18.098Z,6.50
2017-11-14T18:35:46.402Z,6.60
2017-11-14T18:38:13.939Z,6.50
2017-11-14T18:40:42.333Z,6.60
2017-11-14T18:43:09.843Z,6.60
2017-11-14T18:45:37.366Z,6.60
2017-11-14T18:48:04.889Z,6.60
2017-11-14T18:50:33.153Z,6.70
2017-11-14T18:53:00.943Z,6.70
2017-11-14T18:55:28.532Z,6.70
2017-11-14T18:57:56.027Z,6.70
2017-11-14T19:00:23.517Z,6.60
2017-11-14T19:02:52.368Z,6.70
2017-11-14T19:05:19.887Z,6.60
2017-11-14T19:07:47.420Z,6.70
2017-11-14T19:10:15.711Z,6.70
2017-11-14T19:12:43.207Z,6.70
2017-11-14T19:15:10.757Z,6.70
2017-11-14T19:17:38.309Z,6.70
2017-11-14T19:20:05.802Z,6.70
2017-11-14T19:22:33.412Z,6.70
2017-11-14T19:25:00.911Z,6.70
2017-11-14T19:27:28.565Z,6.70
2017-11-14T19:29:56.053Z,6.80
2017-11-14T19:32:23.535Z,6.80
2017-11-14T19:34:51.818Z,6.80
2017-11-14T19:37:19.455Z,6.80
2017-11-14T19:39:47.795Z,6.80
2017-11-14T19:42:15.415Z,6.80
2017-11-14T19:44:43.113Z,6.80
2017-11-14T19:47:11.162Z,6.80
2017-11-14T19:49:38.707Z,6.80
2017-11-14T19:52:06.226Z,6.80
2017-11-14T19:54:34.336Z,6.80
2017-11-14T19:57:01.841Z,6.80
2017-11-14T19:59:29.322Z,6.80
2017-11-14T20:01:57.095Z,6.80
2017-11-14T20:04:24.630Z,6.80
2017-11-14T20:06:52.145Z,6.70
2017-11-14T20:09:19.634Z,6.80
2017-11-14T20:11:47.152Z,6.80
2017-11-14T20:14:14.644Z,6.70
2017-11-14T20:16:42.169Z,6.80
2017-11-14T20:19:09.792Z,6.70
2017-11-14T20:21:37.287Z,6.70
2017-11-14T20:24:05.075Z,6.70
2017-11-14T20:26:32.637Z,6.70
2017-11-14T20:29:00.149Z,6.60
2017-11-14T20:31:27.675Z,6.70
2017-11-14T20:33:55.310Z,6.70
2017-11-14T20:36:22.856Z,6.70
2017-11-14T20:38:50.345Z,6.70
2017-11-14T20:41:17.884Z,6.60
2017-11-14T20:43:45.421Z,6.60
2017-11-14T20:46:12.924Z,6.60
2017-11-14T20:48:40.567Z,6.60
2017-11-14T20:51:08.075Z,6.60
2017-11-14T20:53:35.647Z,6.60
2017-11-14T20:56:03.898Z,6.60
2017-11-14T20:58:32.170Z,6.60
2017-11-14T21:00:59.657Z,6.50
2017-11-14T21:03:27.939Z,6.50
2017-11-14T21:05:56.200Z,6.60
2017-11-14T21:08:23.698Z,6.50
2017-11-14T21:10:51.197Z,6.50
2017-11-14T21:13:18.825Z,6.50
2017-11-14T21:15:46.318Z,6.50
2017-11-14T21:18:14.630Z,6.50
2017-11-14T21:20:43.130Z,6.50
2017-11-14T21:23:11.375Z,6.50
2017-11-14T21:25:39.663Z,6.50
2017-11-14T21:28:07.914Z,6.50
2017-11-14T21:30:35.418Z,6.50
2017-11-14T21:33:02.910Z,6.50
2017-11-14T21:35:30.406Z,6.50
2017-11-14T21:37:58.673Z,6.50
2017-11-14T21:40:26.192Z,6.50
2017-11-14T21:42:53.713Z,6.40
2017-11-14T21:45:21.263Z,6.40
2017-11-14T21:47:48.837Z,6.40
2017-11-14T21:50:16.343Z,6.40
2017-11-14T21:52:43.860Z,6.40
2017-11-14T21:55:11.368Z,6.40
2017-11-14T21:57:38.937Z,6.40
2017-11-14T22:00:06.432Z,6.40
2017-11-14T22:02:33.951Z,6.40
2017-11-14T22:05:01.441Z,6.40
2017-11-14T22:07:28.994Z,6.40
2017-11-14T22:09:57.361Z,6.40
2017-11-14T22:12:25.696Z,6.40
2017-11-14T22:14:53.520Z,6.40
2017-11-14T22:17:21.106Z,6.50
2017-11-14T22:19:49.326Z,6.60
2017-11-14T22:22:16.813Z,6.50
2017-11-14T22:24:44.326Z,6.40
2017-11-14T22:27:11.836Z,6.40
2017-11-14T22:29:39.322Z,6.40
2017-11-14T22:32:06.834Z,6.40
2017-11-14T22:34:34.334Z,6.40
2017-11-14T22:37:01.849Z,6.30
2017-11-14T22:39:30.112Z,6.30
2017-11-14T22:41:57.604Z,6.30
2017-11-14T22:44:25.109Z,6.30
2017-11-14T22:46:52.597Z,6.30
2017-11-14T22:49:20.119Z,6.30
2017-11-14T22:51:47.598Z,6.30
2017-11-14T22:54:15.084Z,6.30
2017-11-14T22:56:42.582Z,6.30
2017-11-14T22:59:10.415Z,6.30
2017-11-14T23:01:37.922Z,6.30
2017-11-14T23:04:05.423Z,6.30
2017-11-14T23:06:32.951Z,6.30
2017-11-14T23:09:01.038Z,6.30
2017-11-14T23:11:29.312Z,6.30
2017-11-14T23:13:57.574Z,6.30
2017-11-14T23:16:25.067Z,6.30
2017-11-14T23:18:52.558Z,6.30
2017-11-14T23:21:20.077Z,6.20
2017-11-14T23:23:48.321Z,6.20
2017-11-14T23:26:15.906Z,6.20
2017-11-14T23:28:44.181Z,6.20
2017-11-14T23:31:12.430Z,6.30
2017-11-14T23:33:40.522Z,6.20
2017-11-14T23:36:08.794Z,6.20
2017-11-14T23:38:37.089Z,6.20
2017-11-14T23:41:05.316Z,6.20
2017-11-14T23:43:32.886Z,6.20
2017-11-14T23:46:00.404Z,6.20
2017-11-14T23:48:27.933Z,6.10
2017-11-14T23:50:56.194Z,6.10
2017-11-14T23:53:23.668Z,6.10
2017-11-14T23:55:51.924Z,6.10
2017-11-14T23:58:19.414Z,6.00
